Time;durP1;ratioP1;P1;durP2;ratioP2;P2;SDS_P1;SDS_P2;PMS_P1;PMS_P2;Temp;Humidity;BMP_temperature;BMP_pressure;BME280_temperature;BME280_humidity;BME280_pressure;Samples;Min_cycle;Max_cycle;Signal;HPM_P1;HPM_P2
2022/05/02 00:01:20;;;;;;;33.03;30.37;;;;;;;21.96;37.28;95163.69;6156870;28;104489;-55
2022/05/02 00:04:22;;;;;;;31.90;29.40;;;;;;;22.02;37.23;95162.50;6140727;28;104315;-55
2022/05/02 00:07:23;;;;;;;34.93;32.13;;;;;;;22.02;36.94;95167.81;6157927;28;103876;-55
2022/05/02 00:10:25;;;;;;;33.00;30.40;;;;;;;22.03;37.17;95158.75;6158276;28;103717;-55
2022/05/02 00:13:27;;;;;;;33.97;31.07;;;;;;;22.02;37.15;95164.38;6130990;28;103701;-54
2022/05/02 00:16:29;;;;;;;34.37;31.57;;;;;;;22.02;37.50;95167.81;6136873;28;104790;-54
2022/05/02 00:19:30;;;;;;;34.53;31.70;;;;;;;22.02;37.28;95170.47;6156552;28;103632;-53
2022/05/02 00:22:32;;;;;;;33.40;30.60;;;;;;;22.00;37.34;95164.66;6141152;28;103850;-54
2022/05/02 00:25:35;;;;;;;32.90;30.20;;;;;;;22.02;37.55;95162.50;6143238;28;103608;-54
2022/05/02 00:28:36;;;;;;;34.43;31.63;;;;;;;22.02;37.07;95162.50;6156362;28;103943;-55
2022/05/02 00:31:38;;;;;;;33.43;30.63;;;;;;;22.01;37.36;95154.78;6156377;28;103865;-54
2022/05/02 00:34:40;;;;;;;32.70;30.00;;;;;;;22.00;37.22;95158.53;6143766;28;103736;-55
2022/05/02 00:37:43;;;;;;;32.33;29.63;;;;;;;22.00;36.96;95156.66;6146035;28;103643;-55
2022/05/02 00:40:45;;;;;;;32.57;29.87;;;;;;;21.99;37.44;95154.28;6158647;28;104938;-53
2022/05/02 00:43:46;;;;;;;31.97;29.50;;;;;;;21.99;37.16;95157.75;6155486;28;103764;-53
2022/05/02 00:46:49;;;;;;;30.97;28.47;;;;;;;21.94;37.12;95147.22;6156592;28;103845;-54
2022/05/02 00:49:50;;;;;;;31.57;28.87;;;;;;;21.98;37.18;95158.03;6146046;28;103764;-52
2022/05/02 00:52:52;;;;;;;30.20;27.67;;;;;;;21.97;37.70;95154.59;6157277;28;103836;-53
2022/05/02 00:55:54;;;;;;;32.33;29.73;;;;;;;21.97;37.51;95148.47;6141400;28;104009;-53
2022/05/02 00:58:56;;;;;;;31.50;28.97;;;;;;;21.98;37.57;95139.41;6152506;28;103710;-53
2022/05/02 01:01:58;;;;;;;31.80;29.30;;;;;;;21.97;37.07;95138.59;6145395;28;103786;-53
2022/05/02 01:05:00;;;;;;;31.03;28.57;;;;;;;21.97;37.55;95132.50;6143596;28;104781;-53
2022/05/02 01:08:01;;;;;;;29.60;27.20;;;;;;;21.92;37.27;95125.41;6156710;28;103972;-54
2022/05/02 01:11:03;;;;;;;28.83;26.53;;;;;;;21.95;37.52;95132.78;6147888;28;104002;-54
2022/05/02 01:14:08;;;;;;;28.63;26.33;;;;;;;21.93;37.25;95116.31;6154709;28;103788;-53
2022/05/02 01:17:10;;;;;;;29.17;26.77;;;;;;;21.95;37.45;95126.69;6153557;28;103764;-53
2022/05/02 01:20:14;;;;;;;28.20;25.83;;;;;;;21.95;37.61;95130.13;6155245;28;103660;-54
2022/05/02 01:23:16;;;;;;;28.07;25.87;;;;;;;21.95;37.09;95122.13;6144863;28;104417;-54
2022/05/02 01:26:18;;;;;;;28.77;26.43;;;;;;;21.95;37.23;95114.16;6154163;28;103960;-54
2022/05/02 01:29:20;;;;;;;27.40;25.20;;;;;;;21.94;37.06;95104.56;6158220;28;104068;-54
2022/05/02 01:32:23;;;;;;;27.03;24.80;;;;;;;21.93;37.13;95111.00;6156784;28;103576;-54
2022/05/02 01:35:24;;;;;;;26.50;24.30;;;;;;;21.92;37.29;95104.09;6140288;28;104428;-53
2022/05/02 01:38:26;;;;;;;26.53;24.43;;;;;;;21.92;37.61;95109.44;6155948;28;105173;-53
2022/05/02 01:41:28;;;;;;;25.80;23.70;;;;;;;21.91;37.56;95096.41;6158141;28;105328;-53
2022/05/02 01:44:30;;;;;;;24.43;22.50;;;;;;;21.92;37.22;95095.31;6153464;28;103930;-52
2022/05/02 01:47:31;;;;;;;24.33;22.07;;;;;;;21.92;37.37;95092.66;6130896;28;105340;-54
2022/05/02 01:50:33;;;;;;;23.77;21.93;;;;;;;21.90;37.40;95089.50;6153222;28;104364;-53
2022/05/02 01:53:35;;;;;;;25.60;23.50;;;;;;;21.89;37.40;95082.59;6157041;28;103935;-55
2022/05/02 01:56:37;;;;;;;24.10;22.10;;;;;;;21.89;37.55;95088.72;6144618;28;104103;-55
2022/05/02 01:59:38;;;;;;;23.10;21.20;;;;;;;21.86;37.00;95084.00;6158757;28;103962;-54
2022/05/02 02:02:40;;;;;;;23.03;21.23;;;;;;;21.90;37.27;95090.28;6155911;28;103947;-54
2022/05/02 02:05:48;;;;;;;23.00;21.20;;;;;;;21.89;37.19;95082.59;6155793;28;103701;-55
2022/05/02 02:08:50;;;;;;;22.97;21.17;;;;;;;21.89;37.10;95079.94;6149947;28;104837;-53
2022/05/02 02:11:52;;;;;;;23.13;21.30;;;;;;;21.90;37.12;95078.84;6158596;28;103803;-52
2022/05/02 02:14:54;;;;;;;22.53;20.73;;;;;;;21.88;37.67;95070.38;6156007;28;104879;-55
2022/05/02 02:17:55;;;;;;;22.93;21.07;;;;;;;21.86;37.42;95067.25;6159390;28;104120;-52
2022/05/02 02:20:57;;;;;;;22.13;20.43;;;;;;;21.87;37.53;95063.47;6149723;28;103872;-55
2022/05/02 02:23:59;;;;;;;22.23;20.33;;;;;;;21.88;37.37;95057.84;6159676;28;103741;-55
2022/05/02 02:27:01;;;;;;;21.93;20.23;;;;;;;21.87;37.79;95055.50;6156867;28;104651;-55
2022/05/02 02:30:03;;;;;;;22.30;20.50;;;;;;;21.88;37.25;95057.06;6154385;28;104973;-55
2022/05/02 02:33:05;;;;;;;21.67;19.97;;;;;;;21.88;37.57;95054.41;6152054;28;104987;-55
2022/05/02 02:36:07;;;;;;;22.20;20.40;;;;;;;21.84;37.61;95043.53;6145090;28;103958;-53
2022/05/02 02:39:09;;;;;;;22.77;20.90;;;;;;;21.86;37.67;95043.25;6159912;28;104357;-56
2022/05/02 02:42:11;;;;;;;21.50;19.77;;;;;;;21.84;37.23;95038.22;6128252;28;103948;-54
2022/05/02 02:45:13;;;;;;;21.33;19.63;;;;;;;21.84;37.49;95032.09;6150990;28;104729;-57
2022/05/02 02:48:15;;;;;;;22.30;20.40;;;;;;;21.86;37.42;95038.72;6159922;28;103877;-56
2022/05/02 02:51:17;;;;;;;21.63;19.80;;;;;;;21.85;37.22;95028.38;6159052;28;103647;-56
2022/05/02 02:54:18;;;;;;;21.33;19.63;;;;;;;21.85;37.27;95037.16;6136646;28;103686;-57
2022/05/02 02:57:20;;;;;;;19.17;17.60;;;;;;;21.86;37.22;95037.94;6154169;28;103872;-55
2022/05/02 03:00:22;;;;;;;19.73;18.20;;;;;;;21.83;37.35;95041.19;6159969;28;103978;-54
2022/05/02 03:03:24;;;;;;;19.17;17.77;;;;;;;21.80;37.72;95032.69;6156145;28;103711;-55
2022/05/02 03:06:26;;;;;;;19.53;18.00;;;;;;;21.78;37.58;95024.22;6143858;28;104740;-55
2022/05/02 03:09:29;;;;;;;17.60;16.30;;;;;;;21.79;37.52;95031.09;6158647;28;103936;-55
2022/05/02 03:12:31;;;;;;;18.70;17.20;;;;;;;21.81;37.12;95030.81;6157034;28;103800;-55
2022/05/02 03:15:33;;;;;;;18.50;17.00;;;;;;;21.76;37.46;95022.94;6149298;28;103956;-54
2022/05/02 03:18:41;;;;;;;18.00;16.60;;;;;;;21.79;37.55;95027.66;6153715;28;103649;-59
2022/05/02 03:21:43;;;;;;;17.80;16.40;;;;;;;21.77;37.75;95025.31;6159272;28;103765;-55
2022/05/02 03:24:44;;;;;;;17.23;15.90;;;;;;;21.77;37.78;95027.97;6155426;28;103978;-52
2022/05/02 03:27:46;;;;;;;17.17;15.77;;;;;;;21.76;37.85;95028.28;6145152;28;103573;-53
2022/05/02 03:30:48;;;;;;;16.07;14.77;;;;;;;21.76;37.45;95030.94;6142355;28;105019;-54
2022/05/02 03:33:50;;;;;;;16.37;15.03;;;;;;;21.76;37.36;95031.72;6151241;28;104550;-52
2022/05/02 03:36:52;;;;;;;17.17;15.87;;;;;;;21.70;37.52;95024.94;6153807;28;103741;-55
2022/05/02 03:39:53;;;;;;;16.20;14.80;;;;;;;21.71;37.50;95031.84;6147642;28;104891;-54
2022/05/02 03:42:55;;;;;;;16.57;15.27;;;;;;;21.76;37.31;95030.94;6158602;28;104906;-54
2022/05/02 03:45:57;;;;;;;16.40;15.10;;;;;;;21.75;37.35;95035.47;6154333;28;103933;-55
2022/05/02 03:49:00;;;;;;;15.23;14.13;;;;;;;21.73;37.33;95035.00;6156650;28;103891;-55
2022/05/02 03:52:02;;;;;;;16.43;15.13;;;;;;;21.72;37.68;95032.63;6146817;28;104659;-54
2022/05/02 03:55:05;;;;;;;16.00;14.53;;;;;;;21.70;37.37;95029.50;6154367;28;103863;-55
2022/05/02 03:58:07;;;;;;;16.50;15.10;;;;;;;21.74;37.78;95028.56;6158097;28;103607;-53
2022/05/02 04:01:08;;;;;;;16.80;15.50;;;;;;;21.71;37.74;95039.84;6152440;28;104741;-56
2022/05/02 04:04:10;;;;;;;16.87;15.47;;;;;;;21.68;37.43;95035.13;6150749;28;104444;-52
2022/05/02 04:07:12;;;;;;;17.70;16.30;;;;;;;21.72;37.40;95048.63;6156768;28;103657;-57
2022/05/02 04:10:14;;;;;;;17.47;16.10;;;;;;;21.72;37.51;95041.41;6156119;28;103877;-52
2022/05/02 04:13:15;;;;;;;18.23;16.73;;;;;;;21.69;37.45;95031.38;6147571;28;105190;-56
2022/05/02 04:16:17;;;;;;;18.47;16.97;;;;;;;21.72;37.58;95037.97;6155050;28;104888;-55
2022/05/02 04:19:19;;;;;;;18.60;17.00;;;;;;;21.73;37.44;95036.88;6157452;28;104714;-55
2022/05/02 04:22:21;;;;;;;18.27;16.77;;;;;;;21.71;37.66;95041.72;6158367;28;104951;-55
2022/05/02 04:25:22;;;;;;;20.00;18.20;;;;;;;21.72;37.74;95043.28;6142883;28;103885;-56
2022/05/02 04:28:24;;;;;;;18.20;16.73;;;;;;;21.70;37.54;95048.13;6159243;28;104632;-56
2022/05/02 04:31:26;;;;;;;18.77;17.17;;;;;;;21.71;37.68;95044.38;6156973;28;104646;-56
2022/05/02 04:34:28;;;;;;;18.53;16.60;;;;;;;21.73;37.90;95048.31;6151977;28;103651;-52
2022/05/02 04:37:29;;;;;;;18.57;17.03;;;;;;;21.76;37.48;95046.91;6149064;28;103846;-55
2022/05/02 04:40:31;;;;;;;17.70;16.20;;;;;;;21.74;37.57;95049.88;6138905;28;103705;-56
2022/05/02 04:43:33;;;;;;;17.37;15.93;;;;;;;21.69;37.76;95039.34;6155573;28;103710;-55
2022/05/02 04:46:35;;;;;;;16.67;15.27;;;;;;;21.78;37.81;95050.84;6145694;28;104876;-54
2022/05/02 04:49:37;;;;;;;17.50;15.90;;;;;;;21.78;37.89;95050.84;6156505;28;104819;-55
2022/05/02 04:52:38;;;;;;;17.43;15.73;;;;;;;21.78;39.31;95045.53;6158314;28;104436;-55
2022/05/02 04:55:40;;;;;;;14.90;13.20;;;;;;;21.79;38.28;95051.63;6151799;28;104533;-56
2022/05/02 04:58:42;;;;;;;10.93;9.70;;;;;;;21.67;38.26;95044.19;6140992;28;104499;-55
2022/05/02 05:01:44;;;;;;;8.87;8.07;;;;;;;21.61;37.70;95047.28;6163956;28;104012;-52
2022/05/02 05:04:46;;;;;;;8.17;7.37;;;;;;;21.48;37.81;95036.38;6152019;28;104053;-53
2022/05/02 05:07:48;;;;;;;8.03;7.23;;;;;;;21.50;38.50;95046.72;6147020;28;103680;-54
2022/05/02 05:11:09;;;;;;;7.30;6.70;;;;;;;21.42;38.39;95042.13;6115457;28;105474;-52
2022/05/02 05:18:13;;;;;;;6.53;4.87;;;;;;;21.33;38.13;95028.72;6158918;28;105136;-55
2022/05/02 05:21:23;;;;;;;5.53;4.57;;;;;;;21.22;38.53;95016.75;6150568;28;103925;-54
2022/05/02 05:24:31;;;;;;;5.10;4.70;;;;;;;21.03;38.20;95026.72;6160220;28;103565;-53
2022/05/02 05:28:04;;;;;;;5.77;4.53;;;;;;;21.13;38.66;95018.53;6161571;28;104611;-54
2022/05/02 05:31:35;;;;;;;5.23;4.70;;;;;;;21.08;38.70;95021.31;6144198;28;104950;-54
2022/05/02 05:35:01;;;;;;;8.23;5.03;;;;;;;20.89;38.48;95022.22;6151644;28;104950;-51
2022/05/02 05:38:10;;;;;;;7.27;6.60;;;;;;;21.30;38.47;95029.31;6154082;28;103920;-54
2022/05/02 05:41:17;;;;;;;6.50;5.80;;;;;;;21.52;38.54;95028.59;6161986;28;103181;-54
2022/05/02 05:44:31;;;;;;;5.60;5.10;;;;;;;21.66;38.26;95026.63;6147604;28;103781;-53
2022/05/02 05:47:58;;;;;;;4.70;4.30;;;;;;;21.74;38.14;95022.47;6159424;28;105229;-54
2022/05/02 05:51:29;;;;;;;6.40;5.60;;;;;;;21.71;38.03;95021.19;6157583;28;103842;-54
2022/05/02 05:54:55;;;;;;;7.83;7.10;;;;;;;21.67;38.30;95022.09;6152111;28;103649;-54
2022/05/02 05:58:12;;;;;;;11.67;10.47;;;;;;;21.59;38.33;95020.16;6159388;28;103884;-54
2022/05/02 06:01:19;;;;;;;11.83;10.00;;;;;;;21.64;37.75;95014.72;6160700;28;103711;-53
2022/05/02 06:04:27;;;;;;;13.33;10.70;;;;;;;21.69;37.91;95017.28;6160554;28;104829;-54
2022/05/02 06:07:33;;;;;;;11.70;10.50;;;;;;;21.74;37.85;95001.94;6149459;28;104796;-54
2022/05/02 06:10:37;;;;;;;13.23;9.93;;;;;;;21.79;37.73;94993.81;6160307;28;104838;-54
2022/05/02 06:13:39;;;;;;;11.23;9.40;;;;;;;21.87;37.38;94996.88;6160112;28;104938;-55
2022/05/02 06:20:15;;;;;;;10.03;7.80;;;;;;;21.36;37.68;95000.75;6155626;28;104801;-55
2022/05/02 06:23:17;;;;;;;6.70;6.20;;;;;;;21.28;37.97;94999.56;6159309;28;103848;-55
2022/05/02 06:26:23;;;;;;;6.50;6.00;;;;;;;21.19;38.00;94996.84;6156398;28;103712;-55
2022/05/02 06:29:25;;;;;;;7.13;6.53;;;;;;;21.10;38.01;95001.31;6151143;28;103937;-56
2022/05/02 06:32:29;;;;;;;8.37;7.57;;;;;;;20.50;37.71;94993.50;6160091;28;103580;-55
2022/05/02 06:35:57;;;;;;;8.90;8.20;;;;;;;20.35;39.00;94998.31;6157738;28;103803;-57
2022/05/02 06:39:08;;;;;;;8.53;7.83;;;;;;;20.90;38.31;94980.44;6159166;28;104771;-56
2022/05/02 06:42:42;;;;;;;9.07;8.30;;;;;;;20.85;38.47;94978.69;6132673;28;105084;-56
2022/05/02 06:45:50;;;;;;;10.43;9.63;;;;;;;20.57;38.28;94988.56;6154821;28;103635;-56
2022/05/02 06:48:56;;;;;;;9.10;8.40;;;;;;;20.96;37.54;94986.44;6160600;28;103687;-56
2022/05/02 06:51:58;;;;;;;10.53;9.63;;;;;;;21.07;37.36;94985.16;6150237;28;104723;-55
2022/05/02 06:55:11;;;;;;;11.20;10.20;;;;;;;21.13;37.37;94987.41;6156215;28;103705;-55
2022/05/02 06:58:16;;;;;;;10.83;9.90;;;;;;;20.99;37.71;94980.50;6158341;28;104092;-54
2022/05/02 07:01:35;;;;;;;7.97;7.20;;;;;;;21.07;37.07;94974.50;6137959;28;103639;-55
2022/05/02 07:05:11;;;;;;;8.53;7.30;;;;;;;21.12;37.41;94969.84;6146589;28;103514;-55
2022/05/02 07:08:22;;;;;;;7.60;6.90;;;;;;;21.12;36.88;94964.53;6142805;28;105091;-55
2022/05/02 07:11:37;;;;;;;7.33;6.73;;;;;;;21.13;36.62;94963.44;6161751;28;103866;-53
2022/05/02 07:14:48;;;;;;;5.40;4.90;;;;;;;20.86;36.98;94963.50;6142750;28;104984;-54
2022/05/02 07:18:17;;;;;;;6.13;5.67;;;;;;;21.04;36.83;94961.78;6157442;28;103788;-51
2022/05/02 07:21:28;;;;;;;5.60;5.10;;;;;;;21.19;36.41;94961.47;6145378;28;104840;-54
2022/05/02 07:24:50;;;;;;;7.50;5.97;;;;;;;21.26;36.13;94942.41;6141358;28;104640;-53
2022/05/02 07:28:19;;;;;;;5.50;5.00;;;;;;;21.24;36.24;94960.56;6154193;28;104344;-54
2022/05/02 07:31:23;;;;;;;5.87;5.43;;;;;;;21.13;36.21;94957.34;6131760;28;103396;-54
2022/05/02 07:34:27;;;;;;;6.00;5.40;;;;;;;21.02;35.97;94942.69;6157673;28;103690;-52
2022/05/02 07:37:32;;;;;;;5.43;5.03;;;;;;;20.85;36.52;94949.44;6128702;28;103493;-54
2022/05/02 07:40:34;;;;;;;6.07;5.60;;;;;;;20.67;36.15;94952.19;6160036;28;105124;-54
2022/05/02 07:43:38;;;;;;;5.90;5.20;;;;;;;20.71;36.03;94963.84;6156949;28;103646;-55
2022/05/02 07:46:45;;;;;;;5.77;5.37;;;;;;;20.75;36.09;94949.63;6149156;28;103914;-54
2022/05/02 07:49:48;;;;;;;6.90;6.37;;;;;;;20.89;35.57;94960.25;6150901;28;103966;-56
2022/05/02 07:52:51;;;;;;;7.57;7.00;;;;;;;21.07;35.55;94955.88;6157186;28;103940;-51
2022/05/02 07:55:55;;;;;;;7.00;6.40;;;;;;;21.25;35.26;94970.91;6152914;28;104463;-54
2022/05/02 07:58:58;;;;;;;7.53;6.93;;;;;;;21.33;34.90;94970.16;6153701;28;103649;-53
2022/05/02 08:02:00;;;;;;;7.80;7.20;;;;;;;21.47;35.45;94964.78;6154131;28;103652;-54
2022/05/02 08:05:06;;;;;;;8.17;7.47;;;;;;;21.54;34.38;94969.69;6157287;28;104751;-55
2022/05/02 08:08:23;;;;;;;8.10;7.43;;;;;;;21.55;34.54;94981.94;6159028;28;105453;-54
2022/05/02 08:11:55;;;;;;;8.90;8.00;;;;;;;21.64;34.96;94985.41;6151140;28;104717;-54
2022/05/02 08:15:15;;;;;;;9.47;8.77;;;;;;;21.66;34.03;94983.22;6156143;28;103880;-53
2022/05/02 08:18:53;;;;;;;10.73;9.17;;;;;;;21.49;34.30;94984.69;6159404;28;103706;-53
2022/05/02 08:29:35;;;;;;;9.50;8.80;;;;;;;21.59;33.72;94988.22;6132523;28;104309;-54
2022/05/02 08:33:05;;;;;;;10.47;9.47;;;;;;;21.54;33.58;94967.03;6160350;28;104055;-56
2022/05/02 08:36:28;;;;;;;10.50;9.70;;;;;;;21.57;33.48;94985.06;6149807;28;104679;-55
2022/05/02 08:39:47;;;;;;;10.30;9.30;;;;;;;21.57;33.77;94971.75;6160117;28;105002;-54
2022/05/02 08:43:16;;;;;;;8.90;8.30;;;;;;;21.57;33.38;94974.41;6160076;28;103657;-58
2022/05/02 08:47:00;;;;;;;8.47;7.83;;;;;;;21.59;33.07;94967.69;6144532;28;104232;-55
2022/05/02 08:50:14;;;;;;;8.90;7.90;;;;;;;21.67;33.50;94968.81;6160349;28;103845;-55
2022/05/02 08:53:45;;;;;;;7.80;7.10;;;;;;;21.65;33.22;94958.47;6166228;28;103824;-55
2022/05/02 08:56:55;;;;;;;7.93;7.20;;;;;;;21.11;32.49;94951.53;6147285;28;103857;-55
2022/05/02 09:00:15;;;;;;;7.50;6.77;;;;;;;20.87;32.63;94944.59;6167074;28;103611;-55
2022/05/02 09:04:08;;;;;;;6.70;6.20;;;;;;;20.88;32.68;94940.06;6166952;28;105833;-54
2022/05/02 09:07:47;;;;;;;6.60;6.10;;;;;;;21.27;32.32;94914.72;6155029;28;104005;-57
2022/05/02 09:10:51;;;;;;;7.93;7.43;;;;;;;21.67;31.90;94924.34;6142807;28;104879;-54
2022/05/02 09:14:17;;;;;;;8.67;7.87;;;;;;;21.90;32.19;94917.13;6160860;28;103531;-55
2022/05/02 09:17:25;;;;;;;10.63;9.83;;;;;;;22.04;32.15;94904.50;6161204;28;104025;-54
2022/05/02 09:20:36;;;;;;;13.10;12.03;;;;;;;22.14;32.63;94899.97;6155355;28;104837;-55
2022/05/02 09:24:17;;;;;;;14.90;13.60;;;;;;;22.30;33.49;94901.09;6165654;28;104312;-56
2022/05/02 09:27:57;;;;;;;16.43;14.97;;;;;;;22.36;33.83;94897.22;6164294;28;103683;-53
2022/05/02 09:30:58;;;;;;;18.90;17.30;;;;;;;22.45;34.59;94892.66;6149748;28;103892;-56
2022/05/02 09:34:48;;;;;;;20.40;18.70;;;;;;;22.48;34.46;94894.72;6163317;28;103749;-56
2022/05/02 09:37:56;;;;;;;9.07;8.27;;;;;;;21.98;31.33;94900.38;6082310;28;105041;-55
2022/05/02 09:40:59;;;;;;;6.17;5.67;;;;;;;21.58;29.71;94880.91;6073029;28;105071;-55
2022/05/02 09:51:42;;;;;;;12.30;11.20;;;;;;;22.29;31.17;94875.53;6166009;28;107152;-56
2022/05/02 09:58:37;;;;;;;18.13;15.07;;;;;;;22.57;36.09;94873.44;6160125;28;103741;-57
2022/05/02 10:01:50;;;;;;;20.00;18.10;;;;;;;22.59;36.73;94873.91;6164021;28;103863;-56
2022/05/02 10:05:06;;;;;;;19.47;16.93;;;;;;;22.64;36.98;94874.53;6146234;28;106378;-55
2022/05/02 10:08:32;;;;;;;17.60;15.43;;;;;;;22.57;36.26;94860.09;6149650;28;104725;-55
2022/05/02 10:11:46;;;;;;;17.67;16.07;;;;;;;22.49;36.28;94874.16;6150066;28;105058;-56
2022/05/02 10:14:54;;;;;;;19.13;17.20;;;;;;;22.42;35.89;94872.75;6158246;28;103708;-56
2022/05/02 10:18:14;;;;;;;18.50;16.80;;;;;;;22.39;36.66;94862.72;6151893;28;104963;-56
2022/05/02 10:21:29;;;;;;;21.30;19.30;;;;;;;22.37;37.44;94856.91;6154614;28;104811;-55
2022/05/02 10:24:52;;;;;;;21.13;19.00;;;;;;;22.34;37.17;94851.41;6158849;28;104878;-56
2022/05/02 10:28:17;;;;;;;24.57;22.23;;;;;;;22.32;37.93;94846.38;6150792;28;103780;-56
2022/05/02 10:31:25;;;;;;;25.60;23.30;;;;;;;22.33;39.21;94852.50;6123497;28;103851;-56
2022/05/02 10:34:31;;;;;;;26.20;24.00;;;;;;;22.31;39.08;94839.47;6155823;28;104881;-53
2022/05/02 10:37:35;;;;;;;27.33;24.90;;;;;;;22.30;39.09;94831.78;6160759;28;106039;-55
2022/05/02 10:40:42;;;;;;;27.53;25.03;;;;;;;22.31;40.25;94830.69;6151459;28;104181;-57
2022/05/02 10:43:55;;;;;;;26.27;23.87;;;;;;;22.30;40.45;94829.91;6160863;28;103837;-57
2022/05/02 10:47:03;;;;;;;28.50;26.00;;;;;;;22.31;41.02;94838.69;6164473;28;103630;-56
2022/05/02 10:50:15;;;;;;;28.43;26.03;;;;;;;22.31;41.74;94838.69;6150672;28;104000;-56
2022/05/02 10:53:40;;;;;;;28.50;26.23;;;;;;;22.32;41.61;94840.25;6161191;28;103466;-56
2022/05/02 10:56:54;;;;;;;29.37;26.90;;;;;;;22.32;41.61;94838.38;6153284;28;103986;-56
2022/05/02 11:00:03;;;;;;;29.60;27.10;;;;;;;22.32;41.97;94837.59;6161206;28;104913;-56
2022/05/02 11:03:25;;;;;;;28.33;25.83;;;;;;;22.26;41.92;94828.19;6149192;28;103461;-56
2022/05/02 11:06:51;;;;;;;28.70;26.30;;;;;;;22.27;41.08;94827.88;6154203;28;103654;-56
2022/05/02 11:09:55;;;;;;;26.43;24.33;;;;;;;22.27;39.80;94835.09;6160932;28;104225;-56
2022/05/02 11:13:26;;;;;;;35.43;32.43;;;;;;;22.27;40.20;94835.09;6148888;28;103832;-54
2022/05/02 11:16:51;;;;;;;48.03;43.93;;;;;;;22.24;40.35;94831.16;6151257;28;104857;-59
2022/05/02 11:20:45;;;;;;;60.10;55.00;;;;;;;22.22;40.68;94824.59;6160012;28;104899;-56
2022/05/02 11:24:21;;;;;;;54.10;49.50;;;;;;;22.21;40.52;94828.34;6107340;28;103978;-55
2022/05/02 11:27:44;;;;;;;46.47;42.57;;;;;;;22.18;40.48;94839.59;6156442;28;104683;-56
2022/05/02 11:30:54;;;;;;;40.97;37.43;;;;;;;22.11;40.22;94822.22;6161205;28;103627;-57
2022/05/02 11:34:04;;;;;;;39.27;35.97;;;;;;;22.15;39.55;94840.22;6159075;28;103661;-56
2022/05/02 11:37:15;;;;;;;34.77;31.90;;;;;;;22.15;39.40;94840.22;6145171;28;103825;-56
2022/05/02 11:40:17;;;;;;;34.13;31.27;;;;;;;22.14;39.06;94834.13;6155085;28;103833;-56
2022/05/02 11:43:21;;;;;;;30.63;28.13;;;;;;;22.13;39.34;94837.09;6158108;28;104881;-56
2022/05/02 11:46:26;;;;;;;29.10;26.80;;;;;;;22.12;38.70;94830.97;6147252;28;105547;-55
2022/05/02 11:49:47;;;;;;;27.80;25.60;;;;;;;22.14;39.00;94833.34;6150938;28;104228;-56
2022/05/02 11:52:54;;;;;;;29.57;27.27;;;;;;;22.15;39.63;94827.69;6159604;28;103687;-56
2022/05/02 11:56:03;;;;;;;31.70;28.90;;;;;;;22.16;39.91;94831.13;6154912;28;104269;-56
2022/05/02 11:59:11;;;;;;;32.33;29.40;;;;;;;22.16;40.08;94821.25;6146711;28;103996;-58
2022/05/02 12:02:42;;;;;;;31.23;28.60;;;;;;;22.17;40.76;94819.38;6158506;28;103792;-56
2022/05/02 12:05:51;;;;;;;31.20;28.63;;;;;;;22.19;41.19;94809.22;6118202;28;105623;-56
2022/05/02 12:08:54;;;;;;;32.20;29.50;;;;;;;22.19;41.69;94814.56;6132641;28;103713;-55
2022/05/02 12:11:58;;;;;;;31.40;28.87;;;;;;;22.20;41.35;94821.44;6151920;28;103923;-54
2022/05/02 12:15:13;;;;;;;31.07;27.97;;;;;;;22.20;42.15;94816.13;6153721;28;103836;-56
2022/05/02 12:18:15;;;;;;;30.90;28.37;;;;;;;22.21;42.35;94812.34;6157239;28;104823;-55
2022/05/02 12:21:40;;;;;;;31.77;29.27;;;;;;;22.21;42.14;94807.03;6148089;28;104827;-57
2022/05/02 12:24:48;;;;;;;32.00;29.50;;;;;;;22.17;42.35;94808.72;6138891;28;103734;-56
2022/05/02 12:27:50;;;;;;;32.33;29.63;;;;;;;22.16;41.32;94815.94;6157730;28;103424;-56
2022/05/02 12:30:52;;;;;;;34.53;31.67;;;;;;;22.13;40.79;94810.44;6159513;28;104725;-56
2022/05/02 12:34:00;;;;;;;34.30;31.50;;;;;;;22.14;40.67;94812.00;6146550;28;104360;-56
2022/05/02 12:37:20;;;;;;;35.67;32.77;;;;;;;22.20;39.32;94800.91;6155723;28;104919;-55
2022/05/02 12:40:24;;;;;;;33.40;30.70;;;;;;;22.22;39.88;94795.25;6159042;28;103688;-54
2022/05/02 12:43:32;;;;;;;33.23;30.03;;;;;;;22.19;39.53;94802.00;6145161;28;103913;-56
2022/05/02 12:46:39;;;;;;;31.80;29.03;;;;;;;22.20;39.20;94794.78;6152800;28;103881;-56
2022/05/02 12:49:55;;;;;;;32.93;30.30;;;;;;;22.17;39.17;94790.84;6149497;28;104836;-58
2022/05/02 12:53:00;;;;;;;31.13;28.43;;;;;;;22.16;38.98;94788.50;6159997;28;104331;-56
2022/05/02 12:56:04;;;;;;;30.00;27.43;;;;;;;22.14;38.82;94790.69;6138545;28;104730;-56
2022/05/02 13:02:42;;;;;;;26.30;23.80;;;;;;;22.19;38.31;94780.69;6156189;28;104908;-56
2022/05/02 13:06:08;;;;;;;26.07;23.67;;;;;;;22.25;38.37;94779.44;6150678;28;103996;-56
2022/05/02 13:09:16;;;;;;;19.23;17.60;;;;;;;22.28;37.82;94780.69;6123253;28;104456;-56
2022/05/02 13:12:19;;;;;;;19.30;17.70;;;;;;;22.28;38.01;94784.13;6141323;28;103671;-55
2022/05/02 13:15:22;;;;;;;20.70;19.20;;;;;;;22.25;37.63;94770.66;6136303;28;104719;-55
2022/05/02 13:18:27;;;;;;;21.20;19.17;;;;;;;22.29;37.86;94785.69;6148620;28;105026;-61
2022/05/02 13:21:35;;;;;;;20.03;18.37;;;;;;;22.24;38.28;94785.06;6157761;28;103689;-56
2022/05/02 13:24:50;;;;;;;17.67;16.13;;;;;;;22.15;36.16;94781.59;6156088;28;103372;-58
2022/05/02 13:27:53;;;;;;;15.83;14.40;;;;;;;22.10;36.76;94775.34;6132050;28;104916;-55
2022/05/02 13:31:09;;;;;;;16.20;14.87;;;;;;;22.22;36.88;94779.28;6120333;28;103756;-55
2022/05/02 13:34:45;;;;;;;17.33;15.73;;;;;;;22.23;36.93;94775.50;6152868;28;103875;-54
2022/05/02 13:37:55;;;;;;;16.50;15.00;;;;;;;22.17;36.98;94766.88;6115832;28;103474;-57
2022/05/02 13:41:49;;;;;;;17.40;15.83;;;;;;;22.20;37.38;94765.47;6132966;28;103812;-55
2022/05/02 13:44:57;;;;;;;17.07;15.47;;;;;;;22.20;37.05;94765.47;6114534;28;104878;-52
2022/05/02 13:48:21;;;;;;;16.97;15.47;;;;;;;22.20;37.42;94763.59;6160475;28;103952;-54
2022/05/02 13:51:29;;;;;;;15.07;13.67;;;;;;;22.22;37.99;94755.28;6155313;28;104813;-54
2022/05/02 13:54:35;;;;;;;15.27;13.87;;;;;;;22.20;37.65;94750.28;6157340;28;103642;-57
2022/05/02 13:57:57;;;;;;;14.80;13.60;;;;;;;22.21;38.24;94754.50;6159365;28;103628;-55
2022/05/02 14:01:32;;;;;;;14.47;13.33;;;;;;;22.21;38.29;94761.72;6161421;28;103886;-55
2022/05/02 14:04:44;;;;;;;16.33;14.40;;;;;;;22.21;37.97;94759.84;6128956;28;103892;-57
2022/05/02 14:07:49;;;;;;;15.00;13.80;;;;;;;22.20;38.49;94757.47;6161117;28;105360;-56
2022/05/02 14:10:58;;;;;;;15.63;14.17;;;;;;;22.23;38.50;94759.50;6144340;28;104942;-54
2022/05/02 14:14:06;;;;;;;14.10;12.80;;;;;;;22.22;38.14;94761.41;6156870;28;104426;-56
2022/05/02 14:17:47;;;;;;;13.57;12.40;;;;;;;22.23;38.60;94756.84;6144449;28;105130;-55
2022/05/02 14:21:00;;;;;;;13.53;12.43;;;;;;;22.24;38.74;94761.09;6161158;28;103742;-55
2022/05/02 14:24:03;;;;;;;12.80;11.67;;;;;;;22.23;38.48;94751.53;6161639;28;105134;-56
2022/05/02 14:27:05;;;;;;;13.43;12.43;;;;;;;22.22;38.83;94750.75;6140866;28;103927;-56
2022/05/02 14:30:07;;;;;;;13.20;12.00;;;;;;;22.25;39.10;94759.97;6160082;28;103993;-57
2022/05/02 14:33:14;;;;;;;12.10;11.17;;;;;;;22.22;38.73;94739.28;6160104;28;105045;-55
2022/05/02 14:36:18;;;;;;;13.20;12.00;;;;;;;22.24;38.54;94753.88;6153232;28;102975;-56
2022/05/02 14:39:20;;;;;;;12.00;10.90;;;;;;;22.26;39.17;94742.91;6157004;28;105153;-56
2022/05/02 14:42:22;;;;;;;12.77;11.80;;;;;;;22.25;39.08;94744.00;6161668;28;104432;-57
2022/05/02 14:45:25;;;;;;;11.33;10.43;;;;;;;22.24;39.42;94739.75;6156919;28;105309;-56
2022/05/02 14:48:28;;;;;;;11.60;10.70;;;;;;;22.22;39.12;94736.63;6148484;28;104101;-55
2022/05/02 14:51:38;;;;;;;10.87;10.03;;;;;;;22.24;38.93;94737.88;6159915;28;105179;-54
2022/05/02 14:54:40;;;;;;;11.07;10.13;;;;;;;22.25;39.37;94739.44;6159866;28;105121;-55